FMCV

Ouani Airport

Ouani, Comoros
METAR FMCV 180600Z 12004KT 9000 OVC018 24/19 Q1018
Observed Flight Rules
Jul-18 @ 06:00 UTC (16 hours ago) Marginal Visual Flight Rules
Wind Visibility Clouds
120° at 4 knots 8,996 meters
  • Overcast at 1,800' AGL
Temperatures Readings
Current 24°C / 75°F
Dewpoint 19°C / 66°F
Humidity 74%
Altimeter 30.06" Hg
Pressure 1018 hPa
Elevation 12
METAR FMCV 180600Z 12004KT 9000 OVC018 24/19 Q1018
Observed Flight Rules
Jul-18 @ 06:00 UTC
(16 hours ago)
MVFR
Wind Visibility
120° at 4 knots 8,996 meters
Clouds
  • Overcast at 1,800' AGL
Temperature Dewpoint
24°C / 75°F 19°C / 66°F
Humidity Altimeter Pressure
74% 30.06" Hg 1018 hPa